Date,TemperatureHighF,TemperatureAvgF,TemperatureLowF,DewpointHighF,DewpointAvgF,DewpointLowF,HumidityHigh,HumidityAvg,HumidityLow,PressureMaxIn,PressureMinIn,WindSpeedMaxMPH,WindSpeedAvgMPH,GustSpeedMaxMPH,PrecipitationSumIn
2013-12-1,40,36,32,34,31,29,92,83,68,30.06,30.00,6,2,11,0.00
2013-12-2,38,31,24,29,26,22,92,81,58,30.00,29.89,3,0,6,0.00
2013-12-3,36,31,22,35,29,20,96,90,80,29.93,29.84,7,2,11,0.09
2013-12-4,56,45,35,54,43,34,98,94,88,29.89,29.56,11,2,16,0.10
2013-12-5,58,40,29,55,34,21,91,78,66,30.12,29.55,16,7,31,0.01
2013-12-6,28,23,18,22,16,11,78,73,67,30.41,30.12,11,5,15,0.00
2013-12-7,22,17,8,12,9,4,88,71,59,30.63,30.42,10,4,16,0.00
2013-12-8,26,17,6,23,12,4,92,82,63,30.62,30.01,10,2,14,0.00
2013-12-9,29,26,18,27,21,9,95,84,69,30.08,29.87,19,6,31,0.00
2013-12-10,20,15,6,16,8,3,90,77,52,30.19,29.93,16,5,25,0.00
2013-12-11,19,14,5,15,9,0,87,78,63,30.46,30.18,16,4,23,0.00
2013-12-12,20,12,2,15,7,-1,89,81,61,30.46,30.17,17,5,21,0.00
2013-12-13,26,23,19,21,17,15,88,80,68,30.32,30.14,9,2,13,0.00
2013-12-14,21,19,17,19,17,14,93,90,86,30.31,29.85,9,2,16,0.00
2013-12-15,22,17,10,20,13,4,94,84,72,30.02,29.81,13,4,23,0.00
2013-12-16,22,12,1,12,5,-2,91,74,49,30.21,30.02,7,1,12,0.00
2013-12-17,28,22,14,25,19,12,93,88,77,30.04,29.86,10,3,17,0.00
2013-12-18,28,26,22,24,20,14,94,80,67,30.10,29.85,11,4,16,0.00
2013-12-19,39,33,28,33,28,18,95,81,64,30.00,29.82,8,2,17,0.08
2013-12-20,33,32,31,33,32,30,98,97,95,29.91,29.74,5,0,8,0.42
2013-12-21,32,31,30,32,31,30,98,98,97,29.87,29.71,4,0,6,0.42
2013-12-22,32,31,32,31,26,-100,97,93,97,29.71,29.59,0,-40,0,0.00
2013-12-25,23,22,18,22,19,16,94,90,87,30.33,30.10,0,0,0,0.00
2013-12-26,25,23,21,24,21,17,96,90,81,30.27,30.02,0,0,0,0.00
2013-12-27,37,30,24,33,28,22,95,92,83,30.31,30.00,14,1,22,0.04
2013-12-28,47,39,31,35,33,29,93,78,65,30.08,29.84,15,5,20,0.17
2013-12-29,41,32,17,33,26,11,94,78,69,30.02,29.68,12,5,19,0.00
2013-12-30,17,15,12,12,7,3,82,70,62,30.28,30.02,11,3,17,0.00
2013-12-31,17,14,11,13,10,5,90,81,68,30.35,30.07,13,5,22,0.00